createdAt,value
2019-03-30T00:01:08.102Z,23.60
2019-03-30T00:03:36.201Z,24.63
2019-03-30T00:06:04.295Z,22.20
2019-03-30T00:08:32.720Z,22.27
2019-03-30T00:11:01.151Z,22.67
2019-03-30T00:13:29.585Z,23.50
2019-03-30T00:15:58.011Z,21.83
2019-03-30T00:18:26.441Z,20.50
2019-03-30T00:20:54.539Z,23.90
2019-03-30T00:23:22.637Z,22.67
2019-03-30T00:25:50.724Z,28.13
2019-03-30T00:28:18.825Z,24.63
2019-03-30T00:30:46.922Z,25.40
2019-03-30T00:33:15.321Z,19.53
2019-03-30T00:35:43.746Z,23.00
2019-03-30T00:38:12.184Z,22.57
2019-03-30T00:40:40.603Z,22.77
2019-03-30T00:43:09.037Z,20.90
2019-03-30T00:45:37.135Z,20.83
2019-03-30T00:48:05.238Z,20.03
2019-03-30T00:50:33.334Z,20.33
2019-03-30T00:53:01.429Z,23.40
2019-03-30T00:55:29.530Z,22.67
2019-03-30T00:58:16.966Z,19.17
2019-03-30T01:00:45.391Z,22.27
2019-03-30T01:03:13.489Z,21.20
2019-03-30T01:05:41.833Z,22.83
2019-03-30T01:08:09.933Z,25.67
2019-03-30T01:10:38.034Z,19.00
2019-03-30T01:13:06.126Z,20.07
2019-03-30T01:15:34.229Z,19.03
2019-03-30T01:18:02.326Z,18.47
2019-03-30T01:20:30.413Z,21.33
2019-03-30T01:22:58.518Z,22.20
2019-03-30T01:25:26.954Z,21.03
2019-03-30T01:27:55.389Z,22.97
2019-03-30T01:30:23.868Z,19.07
2019-03-30T01:32:52.325Z,21.87
2019-03-30T01:35:20.565Z,21.00
2019-03-30T01:37:49.036Z,19.33
2019-03-30T01:40:17.141Z,18.20
2019-03-30T01:42:45.636Z,21.53
2019-03-30T01:45:14.497Z,19.67
2019-03-30T01:47:42.617Z,19.00
2019-03-30T01:50:17.822Z,22.13
2019-03-30T01:52:40.712Z,20.83
2019-03-30T01:55:08.889Z,20.23
2019-03-30T01:57:36.981Z,19.80
2019-03-30T02:00:06.625Z,17.30
2019-03-30T02:02:35.049Z,19.70
2019-03-30T02:05:03.713Z,19.03
2019-03-30T02:07:32.148Z,22.83
2019-03-30T02:10:00.375Z,20.90
2019-03-30T02:12:28.942Z,19.37
2019-03-30T02:14:57.041Z,23.67
2019-03-30T02:17:25.466Z,19.87
2019-03-30T02:19:53.569Z,18.00
2019-03-30T02:22:21.686Z,16.80
2019-03-30T02:24:49.794Z,23.30
2019-03-30T02:27:17.887Z,21.27
2019-03-30T02:29:46.065Z,19.57
2019-03-30T02:32:14.486Z,18.47
2019-03-30T02:34:42.923Z,21.50
2019-03-30T02:37:11.350Z,19.67
2019-03-30T02:39:39.773Z,18.77
2019-03-30T02:42:07.852Z,19.40
2019-03-30T02:44:35.955Z,18.73
2019-03-30T02:47:04.374Z,20.17
2019-03-30T02:49:32.475Z,21.23
2019-03-30T02:52:00.557Z,21.83
2019-03-30T02:54:28.679Z,19.70
2019-03-30T02:56:56.749Z,21.13
2019-03-30T02:59:25.188Z,25.37
2019-03-30T03:01:53.610Z,20.10
2019-03-30T03:04:22.045Z,21.43
2019-03-30T03:06:50.471Z,20.47
2019-03-30T03:09:18.573Z,22.37
2019-03-30T03:11:46.664Z,18.73
2019-03-30T03:14:14.770Z,19.77
2019-03-30T03:16:42.881Z,20.43
2019-03-30T03:19:30.321Z,21.20
2019-03-30T03:21:58.748Z,19.53
2019-03-30T03:24:26.853Z,24.17
2019-03-30T03:26:55.248Z,20.00
2019-03-30T03:29:23.341Z,19.73
2019-03-30T03:31:51.437Z,20.17
2019-03-30T03:34:19.551Z,21.43
2019-03-30T03:36:47.650Z,21.17
2019-03-30T03:39:15.749Z,20.53
2019-03-30T03:41:44.274Z,22.20
2019-03-30T03:44:12.968Z,20.67
2019-03-30T03:46:41.097Z,23.90
2019-03-30T03:49:09.253Z,20.67
2019-03-30T03:51:37.426Z,18.67
2019-03-30T03:54:05.522Z,21.70
2019-03-30T03:56:34.600Z,19.03
2019-03-30T03:59:04.579Z,20.27
2019-03-30T04:01:35.024Z,20.70
2019-03-30T04:04:03.123Z,21.67
2019-03-30T04:06:33.169Z,23.00
2019-03-30T04:09:04.441Z,18.63
2019-03-30T04:11:32.536Z,20.57
2019-03-30T04:14:00.895Z,19.73
2019-03-30T04:16:29.178Z,20.77
2019-03-30T04:18:57.273Z,20.77
2019-03-30T04:21:42.432Z,20.00
2019-03-30T04:23:55.577Z,18.63
2019-03-30T04:26:23.717Z,20.27
2019-03-30T04:28:51.804Z,21.33
2019-03-30T04:31:19.904Z,20.30
2019-03-30T04:33:48.623Z,19.77
2019-03-30T04:36:16.718Z,20.93
2019-03-30T04:38:44.808Z,20.10
2019-03-30T04:41:15.891Z,18.13
2019-03-30T04:43:45.528Z,17.87
2019-03-30T04:46:13.641Z,20.73
2019-03-30T04:48:42.383Z,20.10
2019-03-30T04:51:10.501Z,20.63
2019-03-30T04:53:38.604Z,23.73
2019-03-30T04:56:07.050Z,18.70
2019-03-30T04:58:35.473Z,19.00
2019-03-30T05:01:03.578Z,19.83
2019-03-30T05:03:31.686Z,19.53
2019-03-30T05:05:59.805Z,21.17
2019-03-30T05:08:27.911Z,17.93
2019-03-30T05:10:56.022Z,19.30
2019-03-30T05:13:24.131Z,18.53
2019-03-30T05:15:53.872Z,19.83
2019-03-30T05:18:21.968Z,18.93
2019-03-30T05:20:50.502Z,16.70
2019-03-30T05:23:18.922Z,17.73
2019-03-30T05:25:47.042Z,18.33
2019-03-30T05:28:16.053Z,28.70
2019-03-30T05:30:44.175Z,19.27
2019-03-30T05:33:12.345Z,21.97
2019-03-30T05:35:40.446Z,17.83
2019-03-30T05:38:08.540Z,19.40
2019-03-30T05:40:36.634Z,19.83
2019-03-30T05:43:04.732Z,21.83
2019-03-30T05:45:32.824Z,23.40
2019-03-30T05:48:00.937Z,21.83
2019-03-30T05:50:29.029Z,18.97
2019-03-30T05:52:57.481Z,20.00
2019-03-30T05:55:25.569Z,19.03
2019-03-30T05:57:53.668Z,19.10
2019-03-30T06:00:23.651Z,18.97
2019-03-30T06:02:52.160Z,23.63
2019-03-30T06:05:20.658Z,20.07
2019-03-30T06:07:48.740Z,21.50
2019-03-30T06:10:16.858Z,20.77
2019-03-30T06:12:44.952Z,20.17
2019-03-30T06:15:13.080Z,21.67
2019-03-30T06:17:41.180Z,21.30
2019-03-30T06:20:09.545Z,20.40
2019-03-30T06:22:40.586Z,23.27
2019-03-30T06:25:07.582Z,19.20
2019-03-30T06:27:35.682Z,24.27
2019-03-30T06:30:20.287Z,21.80
2019-03-30T06:32:48.858Z,26.73
2019-03-30T06:35:17.614Z,19.03
2019-03-30T06:37:45.713Z,24.40
2019-03-30T06:40:13.888Z,21.67
2019-03-30T06:42:42.001Z,23.43
2019-03-30T06:45:10.169Z,27.03
2019-03-30T06:47:38.264Z,20.20
2019-03-30T06:50:06.921Z,20.83
2019-03-30T06:52:35.345Z,21.23
2019-03-30T06:55:04.208Z,24.50
2019-03-30T06:57:32.327Z,26.00
2019-03-30T07:00:00.430Z,23.93
2019-03-30T07:02:28.518Z,23.10
2019-03-30T07:04:56.639Z,21.40
2019-03-30T07:07:25.430Z,24.03
2019-03-30T07:09:53.527Z,23.57
2019-03-30T07:12:24.944Z,21.50
2019-03-30T07:14:55.769Z,25.27
2019-03-30T07:17:24.357Z,20.97
2019-03-30T07:19:54.350Z,25.60
2019-03-30T07:22:22.775Z,24.47
2019-03-30T07:24:50.874Z,22.50
2019-03-30T07:27:18.967Z,22.50
2019-03-30T07:29:47.091Z,23.73
2019-03-30T07:32:15.181Z,30.63
2019-03-30T07:34:43.356Z,24.67
2019-03-30T07:37:11.448Z,26.30
2019-03-30T07:39:39.542Z,25.43
2019-03-30T07:42:07.622Z,26.33
2019-03-30T07:44:35.717Z,24.43
2019-03-30T07:47:03.796Z,25.60
2019-03-30T07:49:31.901Z,24.03
2019-03-30T07:52:00.330Z,23.53
2019-03-30T07:54:28.753Z,26.80
2019-03-30T07:57:05.048Z,24.07
2019-03-30T07:59:27.061Z,26.07
2019-03-30T08:01:55.487Z,23.07
2019-03-30T08:04:23.909Z,24.33
2019-03-30T08:06:52.018Z,24.57
2019-03-30T08:09:20.113Z,22.30
2019-03-30T08:11:48.203Z,26.53
2019-03-30T08:14:16.309Z,22.20
2019-03-30T08:16:44.398Z,23.90
2019-03-30T08:19:12.513Z,22.67
2019-03-30T08:21:40.604Z,27.53
2019-03-30T08:24:08.701Z,21.67
2019-03-30T08:26:37.129Z,23.87
2019-03-30T08:29:05.622Z,22.10
2019-03-30T08:31:34.062Z,69.53
2019-03-30T08:34:02.617Z,25.77
2019-03-30T08:36:30.686Z,23.80
2019-03-30T08:38:58.788Z,21.77
2019-03-30T08:41:26.909Z,21.30
2019-03-30T08:43:55.013Z,46.33
2019-03-30T08:46:23.098Z,25.53
2019-03-30T08:48:51.196Z,23.17
2019-03-30T08:51:20.788Z,26.80
2019-03-30T08:53:54.705Z,23.30
2019-03-30T08:56:18.969Z,24.13
2019-03-30T08:58:47.085Z,24.07
2019-03-30T09:01:15.197Z,20.43
2019-03-30T09:03:43.629Z,22.57
2019-03-30T09:06:12.093Z,23.70
2019-03-30T09:08:40.508Z,21.50
2019-03-30T09:11:08.942Z,25.07
2019-03-30T09:13:37.364Z,23.03
2019-03-30T09:16:05.457Z,22.93
2019-03-30T09:18:33.544Z,22.27
2019-03-30T09:21:04.194Z,20.67
2019-03-30T09:23:34.166Z,156.17
2019-03-30T09:26:02.276Z,116.53
2019-03-30T09:28:30.383Z,38.30
2019-03-30T09:30:58.822Z,28.40
2019-03-30T09:33:26.914Z,20.77
2019-03-30T09:35:55.022Z,23.17
2019-03-30T09:38:25.464Z,18.97
2019-03-30T09:40:53.941Z,20.20
2019-03-30T09:43:22.444Z,23.30
2019-03-30T09:45:50.601Z,22.33
2019-03-30T09:48:18.705Z,19.13
2019-03-30T09:50:47.140Z,30.53
2019-03-30T09:53:15.593Z,21.27
2019-03-30T09:55:43.726Z,19.13
2019-03-30T09:58:12.232Z,21.33
2019-03-30T10:00:40.688Z,19.97
2019-03-30T10:03:09.203Z,20.03
2019-03-30T10:05:37.629Z,21.63
2019-03-30T10:08:06.114Z,19.10
2019-03-30T10:10:35.917Z,16.70
2019-03-30T10:13:04.401Z,17.63
2019-03-30T10:15:32.890Z,21.37
2019-03-30T10:18:01.627Z,18.40
2019-03-30T10:20:30.729Z,17.17
2019-03-30T10:22:59.176Z,16.73
2019-03-30T10:25:27.406Z,20.47
2019-03-30T10:27:55.838Z,15.47
2019-03-30T10:30:24.269Z,11.67
2019-03-30T10:32:52.706Z,10.77
2019-03-30T10:35:21.129Z,11.17
2019-03-30T10:37:49.556Z,15.03
2019-03-30T10:40:20.699Z,13.83
2019-03-30T10:42:47.881Z,16.77
2019-03-30T10:45:16.299Z,12.60
2019-03-30T10:47:44.730Z,12.17
2019-03-30T10:50:13.876Z,12.27
2019-03-30T10:52:42.030Z,12.63
2019-03-30T10:55:10.521Z,8.37
2019-03-30T10:57:38.973Z,7.30
2019-03-30T11:00:27.857Z,7.30
2019-03-30T11:02:56.268Z,6.63
2019-03-30T11:05:24.676Z,8.40
2019-03-30T11:07:53.107Z,9.27
2019-03-30T11:10:21.529Z,10.23
2019-03-30T11:12:49.939Z,8.43
2019-03-30T11:15:18.348Z,8.43
2019-03-30T11:17:46.767Z,7.00
2019-03-30T11:20:15.185Z,11.23
2019-03-30T11:22:43.600Z,8.23
2019-03-30T11:25:12.020Z,9.77
2019-03-30T11:27:40.442Z,9.70
2019-03-30T11:30:09.094Z,7.80
2019-03-30T11:32:37.449Z,8.03
2019-03-30T11:35:06.651Z,10.47
2019-03-30T11:37:35.066Z,9.23
2019-03-30T11:40:05.925Z,8.33
2019-03-30T11:42:34.342Z,9.10
2019-03-30T11:45:02.750Z,11.73
2019-03-30T11:47:31.181Z,10.70
2019-03-30T11:49:59.266Z,10.33
2019-03-30T11:52:27.688Z,10.90
2019-03-30T11:54:55.763Z,11.00
2019-03-30T11:57:23.857Z,10.83
2019-03-30T11:59:52.271Z,10.10
2019-03-30T12:02:27.804Z,9.53
2019-03-30T12:04:50.824Z,8.67
2019-03-30T12:07:19.252Z,11.13
2019-03-30T12:09:47.656Z,12.13
2019-03-30T12:12:15.744Z,12.03
2019-03-30T12:14:44.157Z,7.53
2019-03-30T12:17:12.581Z,11.37
2019-03-30T12:19:41.008Z,8.43
2019-03-30T12:22:09.443Z,8.30
2019-03-30T12:24:37.859Z,10.03
2019-03-30T12:27:06.280Z,9.67
2019-03-30T12:29:34.768Z,12.57
2019-03-30T12:32:03.175Z,9.07
2019-03-30T12:34:31.669Z,9.53
2019-03-30T12:37:00.081Z,9.20
2019-03-30T12:39:28.501Z,9.57
2019-03-30T12:41:57.167Z,8.50
2019-03-30T12:44:25.606Z,15.20
2019-03-30T12:46:54.063Z,9.17
2019-03-30T12:49:22.480Z,8.67
2019-03-30T12:51:50.887Z,10.20
2019-03-30T12:54:19.307Z,11.40
2019-03-30T12:56:47.734Z,9.50
2019-03-30T12:59:16.221Z,10.07
2019-03-30T13:01:44.651Z,10.57
2019-03-30T13:04:13.076Z,12.20
2019-03-30T13:06:41.493Z,9.90
2019-03-30T13:09:09.959Z,11.90
2019-03-30T13:11:38.385Z,9.57
2019-03-30T13:14:06.800Z,9.37
2019-03-30T13:16:35.491Z,8.60
2019-03-30T13:19:04.127Z,12.90
2019-03-30T13:21:32.620Z,11.10
2019-03-30T13:24:01.294Z,8.73
2019-03-30T13:26:29.703Z,9.27
2019-03-30T13:28:58.120Z,11.57
2019-03-30T13:31:26.524Z,9.47
2019-03-30T13:33:54.955Z,11.00
2019-03-30T13:36:43.682Z,9.03
2019-03-30T13:39:12.193Z,11.17
2019-03-30T13:41:40.296Z,8.47
2019-03-30T13:44:08.381Z,9.03
2019-03-30T13:46:36.456Z,9.67
2019-03-30T13:49:04.612Z,10.63
2019-03-30T13:51:33.040Z,7.83
2019-03-30T13:54:01.465Z,9.93
2019-03-30T13:56:29.559Z,9.27
2019-03-30T13:58:57.658Z,10.37
2019-03-30T14:01:26.136Z,19.27
2019-03-30T14:03:54.550Z,9.07
2019-03-30T14:06:22.628Z,8.50
2019-03-30T14:08:50.712Z,9.70
2019-03-30T14:11:18.816Z,12.33
2019-03-30T14:13:46.980Z,8.77
2019-03-30T14:16:15.336Z,9.70
2019-03-30T14:18:43.753Z,11.40
2019-03-30T14:21:12.163Z,8.10
2019-03-30T14:23:43.324Z,10.83
2019-03-30T14:26:10.728Z,13.07
2019-03-30T14:28:38.821Z,9.23
2019-03-30T14:31:07.275Z,10.73
2019-03-30T14:33:35.412Z,8.23
2019-03-30T14:36:03.486Z,8.10
2019-03-30T14:38:31.593Z,9.20
2019-03-30T14:40:59.673Z,8.43
2019-03-30T14:43:27.752Z,9.07
2019-03-30T14:45:55.916Z,12.20
2019-03-30T14:48:24.006Z,7.47
2019-03-30T14:50:52.413Z,7.33
2019-03-30T14:53:20.558Z,8.73
2019-03-30T14:55:49.231Z,7.47
2019-03-30T14:58:17.733Z,9.07
2019-03-30T15:00:45.872Z,9.63
2019-03-30T15:03:13.949Z,13.97
2019-03-30T15:05:42.033Z,7.97
2019-03-30T15:08:10.112Z,11.40
2019-03-30T15:10:38.218Z,15.33
2019-03-30T15:13:06.297Z,16.50
2019-03-30T15:15:34.399Z,22.73
2019-03-30T15:18:02.488Z,17.73
2019-03-30T15:20:30.584Z,15.00
2019-03-30T15:22:58.701Z,19.37
2019-03-30T15:25:26.796Z,16.63
2019-03-30T15:27:54.880Z,14.00
2019-03-30T15:30:22.981Z,14.47
2019-03-30T15:32:51.400Z,15.07
2019-03-30T15:35:19.820Z,16.37
2019-03-30T15:37:48.239Z,13.53
2019-03-30T15:40:16.342Z,15.50
2019-03-30T15:42:44.764Z,14.73
2019-03-30T15:45:12.858Z,14.83
2019-03-30T15:47:40.948Z,12.37
2019-03-30T15:50:09.408Z,16.00
2019-03-30T15:52:37.497Z,13.57
2019-03-30T15:55:06.368Z,15.50
2019-03-30T15:57:35.427Z,15.80
2019-03-30T16:00:07.010Z,15.60
2019-03-30T16:02:35.209Z,17.60
2019-03-30T16:05:03.797Z,16.40
2019-03-30T16:07:32.215Z,17.73
2019-03-30T16:10:00.710Z,18.00
2019-03-30T16:12:29.248Z,17.23
2019-03-30T16:14:58.055Z,18.17
2019-03-30T16:17:26.468Z,21.17
2019-03-30T16:19:54.889Z,19.00
2019-03-30T16:22:23.316Z,16.10
2019-03-30T16:24:51.401Z,16.87
2019-03-30T16:27:28.922Z,16.53
2019-03-30T16:29:49.647Z,18.40
2019-03-30T16:32:18.146Z,19.57
2019-03-30T16:34:46.237Z,18.77
2019-03-30T16:37:14.336Z,17.20
2019-03-30T16:39:42.769Z,16.70
2019-03-30T16:42:11.555Z,20.17
2019-03-30T16:44:39.968Z,18.37
2019-03-30T16:47:08.416Z,20.77
2019-03-30T16:49:36.509Z,19.17
2019-03-30T16:52:04.651Z,18.10
2019-03-30T16:54:32.738Z,16.93
2019-03-30T16:57:00.837Z,17.63
2019-03-30T16:59:28.919Z,17.13
2019-03-30T17:01:57.017Z,20.60
2019-03-30T17:04:25.112Z,18.70
2019-03-30T17:06:53.206Z,17.63
2019-03-30T17:09:21.295Z,18.73
2019-03-30T17:11:49.386Z,18.03
2019-03-30T17:14:17.905Z,19.60
2019-03-30T17:16:46.005Z,17.60
2019-03-30T17:19:14.419Z,17.17
2019-03-30T17:21:42.854Z,17.13
2019-03-30T17:24:11.287Z,19.60
2019-03-30T17:26:39.445Z,19.17
2019-03-30T17:29:07.537Z,17.57
2019-03-30T17:31:35.670Z,18.50
2019-03-30T17:34:03.860Z,18.40
2019-03-30T17:36:31.956Z,15.37
2019-03-30T17:39:00.390Z,20.17
2019-03-30T17:41:28.475Z,20.33
2019-03-30T17:43:58.819Z,20.93
2019-03-30T17:46:26.902Z,21.00
2019-03-30T17:48:55.000Z,26.53
2019-03-30T17:51:23.102Z,28.20
2019-03-30T17:53:51.544Z,33.50
2019-03-30T17:56:19.657Z,36.07
2019-03-30T17:58:47.757Z,27.03
2019-03-30T18:01:16.300Z,19.87
2019-03-30T18:03:44.415Z,22.90
2019-03-30T18:06:12.492Z,19.67
2019-03-30T18:08:40.586Z,20.07
2019-03-30T18:11:08.681Z,21.33
2019-03-30T18:13:37.073Z,17.50
2019-03-30T18:16:05.680Z,23.27
2019-03-30T18:18:34.111Z,23.57
2019-03-30T18:21:02.544Z,25.60
2019-03-30T18:23:31.001Z,33.27
2019-03-30T18:25:59.084Z,35.10
2019-03-30T18:28:27.745Z,23.77
2019-03-30T18:30:56.200Z,25.87
2019-03-30T18:33:24.471Z,19.47
2019-03-30T18:35:53.324Z,19.50
2019-03-30T18:38:22.511Z,20.70
2019-03-30T18:40:51.288Z,25.50
2019-03-30T18:43:19.770Z,22.00
2019-03-30T18:45:48.185Z,26.00
2019-03-30T18:48:17.674Z,27.43
2019-03-30T18:50:46.049Z,22.07
2019-03-30T18:53:15.212Z,21.27
2019-03-30T18:55:43.924Z,27.30
2019-03-30T18:58:12.351Z,28.53
2019-03-30T19:00:41.066Z,26.97
2019-03-30T19:03:09.497Z,26.87
2019-03-30T19:05:37.931Z,26.13
2019-03-30T19:08:06.316Z,24.37
2019-03-30T19:10:35.098Z,23.73
2019-03-30T19:13:03.874Z,26.03
2019-03-30T19:15:32.270Z,26.37
2019-03-30T19:18:00.650Z,24.27
2019-03-30T19:20:29.085Z,24.43
2019-03-30T19:22:57.169Z,26.43
2019-03-30T19:25:25.279Z,20.83
2019-03-30T19:27:53.692Z,22.73
2019-03-30T19:30:22.365Z,23.50
2019-03-30T19:32:50.455Z,22.27
2019-03-30T19:35:18.890Z,27.13
2019-03-30T19:37:47.578Z,21.33
2019-03-30T19:40:16.149Z,26.00
2019-03-30T19:42:44.569Z,18.10
2019-03-30T19:45:13.025Z,19.90
2019-03-30T19:47:41.108Z,15.03
2019-03-30T19:50:09.268Z,17.87
2019-03-30T19:52:40.046Z,16.70
2019-03-30T19:55:07.989Z,17.70
2019-03-30T19:57:36.082Z,20.57
2019-03-30T20:00:08.050Z,20.37
2019-03-30T20:02:36.781Z,20.00
2019-03-30T20:05:06.918Z,20.07
2019-03-30T20:07:35.698Z,18.10
2019-03-30T20:10:05.621Z,21.30
2019-03-30T20:12:33.980Z,24.17
2019-03-30T20:15:02.657Z,23.57
2019-03-30T20:17:30.753Z,14.83
2019-03-30T20:19:59.532Z,15.73
2019-03-30T20:22:27.609Z,22.70
2019-03-30T20:24:55.707Z,22.07
2019-03-30T20:27:24.044Z,19.50
2019-03-30T20:29:52.139Z,22.27
2019-03-30T20:32:20.510Z,23.87
2019-03-30T20:34:48.930Z,22.57
2019-03-30T20:37:17.667Z,19.60
2019-03-30T20:39:46.091Z,18.50
2019-03-30T20:42:14.172Z,22.00
2019-03-30T20:44:42.271Z,21.90
2019-03-30T20:47:10.352Z,18.17
2019-03-30T20:49:38.762Z,16.37
2019-03-30T20:52:06.909Z,23.13
2019-03-30T20:54:34.996Z,20.77
2019-03-30T20:57:03.086Z,14.97
2019-03-30T20:59:39.846Z,17.60
2019-03-30T21:02:02.020Z,29.13
2019-03-30T21:04:31.985Z,21.97
2019-03-30T21:07:01.897Z,17.17
2019-03-30T21:09:30.587Z,18.47
2019-03-30T21:11:58.711Z,19.17
2019-03-30T21:14:28.450Z,19.20
2019-03-30T21:16:56.878Z,17.33
2019-03-30T21:19:25.254Z,18.37
2019-03-30T21:21:53.727Z,17.87
2019-03-30T21:24:21.804Z,19.73
2019-03-30T21:26:50.211Z,17.87
2019-03-30T21:29:18.962Z,15.07
2019-03-30T21:31:49.421Z,18.80
2019-03-30T21:34:17.606Z,15.50
2019-03-30T21:36:45.696Z,13.60
2019-03-30T21:39:15.662Z,18.53
2019-03-30T21:41:43.761Z,22.07
2019-03-30T21:44:21.897Z,18.37
2019-03-30T21:46:42.030Z,14.57
2019-03-30T21:49:10.141Z,17.47
2019-03-30T21:51:38.362Z,21.00
2019-03-30T21:54:07.140Z,16.23
2019-03-30T21:56:35.935Z,23.37
2019-03-30T21:59:04.481Z,23.20
2019-03-30T22:01:34.190Z,15.83
2019-03-30T22:04:02.261Z,15.90
2019-03-30T22:06:31.803Z,22.63
2019-03-30T22:09:02.930Z,20.87
2019-03-30T22:11:32.866Z,21.87
2019-03-30T22:14:01.304Z,21.80
2019-03-30T22:16:29.750Z,17.77
2019-03-30T22:19:00.555Z,20.07
2019-03-30T22:21:29.970Z,21.03
2019-03-30T22:23:59.241Z,17.27
2019-03-30T22:26:30.189Z,22.60
2019-03-30T22:29:00.704Z,17.00
2019-03-30T22:31:28.838Z,20.70
2019-03-30T22:33:58.371Z,19.53
2019-03-30T22:36:26.906Z,23.73
2019-03-30T22:38:55.847Z,22.97
2019-03-30T22:41:24.002Z,18.17
2019-03-30T22:43:52.418Z,19.73
2019-03-30T22:46:21.235Z,19.83
2019-03-30T22:48:51.332Z,20.43
2019-03-30T22:51:19.437Z,19.47
2019-03-30T22:53:47.810Z,23.10
2019-03-30T22:56:16.301Z,20.93
2019-03-30T22:58:44.755Z,17.37
2019-03-30T23:01:15.169Z,18.87
2019-03-30T23:03:43.875Z,20.17
2019-03-30T23:06:12.352Z,21.63
2019-03-30T23:08:41.761Z,24.60
2019-03-30T23:11:09.935Z,19.13
2019-03-30T23:13:38.034Z,16.37
2019-03-30T23:16:07.359Z,23.47
2019-03-30T23:18:36.522Z,16.03
2019-03-30T23:21:06.208Z,17.93
2019-03-30T23:23:34.605Z,18.07
2019-03-30T23:26:02.969Z,17.53
2019-03-30T23:28:32.932Z,17.80
2019-03-30T23:31:02.797Z,15.47
2019-03-30T23:33:30.919Z,17.57
2019-03-30T23:36:00.174Z,18.10
2019-03-30T23:38:28.586Z,16.93
2019-03-30T23:40:57.030Z,20.43
2019-03-30T23:43:27.251Z,23.70
2019-03-30T23:45:55.637Z,16.53
2019-03-30T23:48:26.134Z,19.80
2019-03-30T23:50:54.577Z,15.87
2019-03-30T23:53:23.979Z,20.90
2019-03-30T23:55:52.897Z,15.67
2019-03-30T23:58:21.009Z,20.20
